sensor_id;sensor_type;location;lat;lon;timestamp;P1;durP1;ratioP1;P2;durP2;ratioP2
11510;SDS011;5812;48.864;9.190;2022-07-29T00:01:41;5.78;;;5.78;;
11510;SDS011;5812;48.864;9.190;2022-07-29T00:04:07;6.15;;;6.15;;
11510;SDS011;5812;48.864;9.190;2022-07-29T00:06:33;6.65;;;6.65;;
11510;SDS011;5812;48.864;9.190;2022-07-29T00:08:59;5.68;;;5.68;;
11510;SDS011;5812;48.864;9.190;2022-07-29T00:11:24;5.55;;;5.55;;
11510;SDS011;5812;48.864;9.190;2022-07-29T00:13:50;6.13;;;6.13;;
11510;SDS011;5812;48.864;9.190;2022-07-29T00:16:15;6.10;;;6.10;;
11510;SDS011;5812;48.864;9.190;2022-07-29T00:18:41;5.93;;;5.93;;
11510;SDS011;5812;48.864;9.190;2022-07-29T00:21:07;6.45;;;6.45;;
11510;SDS011;5812;48.864;9.190;2022-07-29T00:23:32;6.40;;;6.40;;
11510;SDS011;5812;48.864;9.190;2022-07-29T00:25:58;6.55;;;6.55;;
11510;SDS011;5812;48.864;9.190;2022-07-29T00:28:23;6.07;;;6.07;;
11510;SDS011;5812;48.864;9.190;2022-07-29T00:30:49;5.90;;;5.90;;
11510;SDS011;5812;48.864;9.190;2022-07-29T00:33:15;6.10;;;6.10;;
11510;SDS011;5812;48.864;9.190;2022-07-29T00:35:40;6.15;;;6.15;;
11510;SDS011;5812;48.864;9.190;2022-07-29T00:38:09;6.50;;;6.50;;
11510;SDS011;5812;48.864;9.190;2022-07-29T00:40:39;7.15;;;7.15;;
11510;SDS011;5812;48.864;9.190;2022-07-29T00:43:05;6.55;;;6.55;;
11510;SDS011;5812;48.864;9.190;2022-07-29T00:45:31;5.40;;;5.40;;
11510;SDS011;5812;48.864;9.190;2022-07-29T00:47:57;6.65;;;6.65;;
11510;SDS011;5812;48.864;9.190;2022-07-29T00:50:23;6.43;;;6.43;;
11510;SDS011;5812;48.864;9.190;2022-07-29T00:52:48;6.20;;;6.20;;
11510;SDS011;5812;48.864;9.190;2022-07-29T00:55:15;6.82;;;6.82;;
11510;SDS011;5812;48.864;9.190;2022-07-29T00:57:41;6.03;;;6.03;;
11510;SDS011;5812;48.864;9.190;2022-07-29T01:00:12;6.05;;;6.05;;
11510;SDS011;5812;48.864;9.190;2022-07-29T01:02:44;6.50;;;6.50;;
11510;SDS011;5812;48.864;9.190;2022-07-29T01:05:13;6.90;;;6.90;;
11510;SDS011;5812;48.864;9.190;2022-07-29T01:07:41;6.43;;;6.43;;
11510;SDS011;5812;48.864;9.190;2022-07-29T01:10:07;6.72;;;6.72;;
11510;SDS011;5812;48.864;9.190;2022-07-29T01:12:35;6.72;;;6.72;;
11510;SDS011;5812;48.864;9.190;2022-07-29T01:15:03;6.75;;;6.75;;
11510;SDS011;5812;48.864;9.190;2022-07-29T01:26:04;6.43;;;6.43;;
11510;SDS011;5812;48.864;9.190;2022-07-29T01:28:52;5.93;;;5.93;;
11510;SDS011;5812;48.864;9.190;2022-07-29T01:31:38;6.93;;;6.93;;
11510;SDS011;5812;48.864;9.190;2022-07-29T01:34:15;6.25;;;6.25;;
11510;SDS011;5812;48.864;9.190;2022-07-29T01:36:48;6.65;;;6.65;;
11510;SDS011;5812;48.864;9.190;2022-07-29T01:39:31;6.93;;;6.93;;
11510;SDS011;5812;48.864;9.190;2022-07-29T01:42:07;6.35;;;6.35;;
11510;SDS011;5812;48.864;9.190;2022-07-29T01:44:48;6.43;;;6.43;;
11510;SDS011;5812;48.864;9.190;2022-07-29T01:47:17;5.88;;;5.88;;
11510;SDS011;5812;48.864;9.190;2022-07-29T01:49:49;6.95;;;6.95;;
11510;SDS011;5812;48.864;9.190;2022-07-29T01:52:32;6.68;;;6.68;;
11510;SDS011;5812;48.864;9.190;2022-07-29T01:55:02;7.07;;;7.07;;
11510;SDS011;5812;48.864;9.190;2022-07-29T01:57:33;7.45;;;7.45;;
11510;SDS011;5812;48.864;9.190;2022-07-29T02:00:01;7.47;;;7.47;;
11510;SDS011;5812;48.864;9.190;2022-07-29T02:02:28;6.32;;;6.32;;
11510;SDS011;5812;48.864;9.190;2022-07-29T02:04:55;6.60;;;6.60;;
11510;SDS011;5812;48.864;9.190;2022-07-29T02:07:23;6.65;;;6.65;;
11510;SDS011;5812;48.864;9.190;2022-07-29T02:09:52;7.60;;;7.60;;
11510;SDS011;5812;48.864;9.190;2022-07-29T02:12:19;7.07;;;7.07;;
11510;SDS011;5812;48.864;9.190;2022-07-29T02:14:50;7.00;;;7.00;;
11510;SDS011;5812;48.864;9.190;2022-07-29T02:17:21;6.97;;;6.97;;
11510;SDS011;5812;48.864;9.190;2022-07-29T02:19:56;6.55;;;6.55;;
11510;SDS011;5812;48.864;9.190;2022-07-29T02:22:24;7.15;;;7.15;;
11510;SDS011;5812;48.864;9.190;2022-07-29T02:24:53;7.22;;;7.22;;
11510;SDS011;5812;48.864;9.190;2022-07-29T02:27:21;6.90;;;6.90;;
11510;SDS011;5812;48.864;9.190;2022-07-29T02:29:48;7.38;;;7.38;;
11510;SDS011;5812;48.864;9.190;2022-07-29T02:32:16;7.38;;;7.38;;
11510;SDS011;5812;48.864;9.190;2022-07-29T02:34:44;7.60;;;7.60;;
11510;SDS011;5812;48.864;9.190;2022-07-29T02:37:12;8.13;;;8.13;;
11510;SDS011;5812;48.864;9.190;2022-07-29T02:39:39;7.55;;;7.55;;
11510;SDS011;5812;48.864;9.190;2022-07-29T02:42:07;7.88;;;7.88;;
11510;SDS011;5812;48.864;9.190;2022-07-29T02:44:36;8.07;;;8.07;;
11510;SDS011;5812;48.864;9.190;2022-07-29T02:47:22;8.27;;;8.27;;
11510;SDS011;5812;48.864;9.190;2022-07-29T02:50:11;8.00;;;8.00;;
11510;SDS011;5812;48.864;9.190;2022-07-29T02:55:28;8.10;;;8.10;;
11510;SDS011;5812;48.864;9.190;2022-07-29T02:58:02;8.02;;;8.02;;
11510;SDS011;5812;48.864;9.190;2022-07-29T03:00:46;7.82;;;7.82;;
11510;SDS011;5812;48.864;9.190;2022-07-29T03:03:15;8.02;;;8.02;;
11510;SDS011;5812;48.864;9.190;2022-07-29T03:05:42;8.23;;;8.23;;
11510;SDS011;5812;48.864;9.190;2022-07-29T03:08:09;7.85;;;7.85;;
11510;SDS011;5812;48.864;9.190;2022-07-29T03:10:37;8.60;;;8.60;;
11510;SDS011;5812;48.864;9.190;2022-07-29T03:13:05;8.30;;;8.30;;
11510;SDS011;5812;48.864;9.190;2022-07-29T03:15:32;7.80;;;7.80;;
11510;SDS011;5812;48.864;9.190;2022-07-29T03:17:59;8.10;;;8.10;;
11510;SDS011;5812;48.864;9.190;2022-07-29T03:20:26;8.50;;;8.50;;
11510;SDS011;5812;48.864;9.190;2022-07-29T03:22:51;8.75;;;8.75;;
11510;SDS011;5812;48.864;9.190;2022-07-29T03:25:18;9.23;;;9.23;;
11510;SDS011;5812;48.864;9.190;2022-07-29T03:27:45;8.50;;;8.50;;
11510;SDS011;5812;48.864;9.190;2022-07-29T03:30:12;8.05;;;8.05;;
11510;SDS011;5812;48.864;9.190;2022-07-29T03:32:38;8.65;;;8.65;;
11510;SDS011;5812;48.864;9.190;2022-07-29T03:35:06;8.50;;;8.50;;
11510;SDS011;5812;48.864;9.190;2022-07-29T03:37:32;7.70;;;7.70;;
11510;SDS011;5812;48.864;9.190;2022-07-29T03:39:58;7.80;;;7.80;;
11510;SDS011;5812;48.864;9.190;2022-07-29T03:42:27;7.68;;;7.68;;
11510;SDS011;5812;48.864;9.190;2022-07-29T03:44:56;7.18;;;7.18;;
11510;SDS011;5812;48.864;9.190;2022-07-29T03:47:24;7.80;;;7.80;;
11510;SDS011;5812;48.864;9.190;2022-07-29T03:49:54;7.57;;;7.57;;
11510;SDS011;5812;48.864;9.190;2022-07-29T03:52:25;7.82;;;7.82;;
11510;SDS011;5812;48.864;9.190;2022-07-29T03:54:51;6.90;;;6.90;;
11510;SDS011;5812;48.864;9.190;2022-07-29T03:57:18;7.47;;;7.47;;
11510;SDS011;5812;48.864;9.190;2022-07-29T03:59:45;7.40;;;7.40;;
11510;SDS011;5812;48.864;9.190;2022-07-29T04:02:12;7.13;;;7.13;;
11510;SDS011;5812;48.864;9.190;2022-07-29T04:04:38;7.85;;;7.85;;
11510;SDS011;5812;48.864;9.190;2022-07-29T04:07:04;7.93;;;7.93;;
11510;SDS011;5812;48.864;9.190;2022-07-29T04:09:30;7.68;;;7.68;;
11510;SDS011;5812;48.864;9.190;2022-07-29T04:11:55;7.65;;;7.65;;
11510;SDS011;5812;48.864;9.190;2022-07-29T04:14:21;7.55;;;7.55;;
11510;SDS011;5812;48.864;9.190;2022-07-29T04:16:47;7.03;;;7.03;;
11510;SDS011;5812;48.864;9.190;2022-07-29T04:19:12;7.70;;;7.70;;
11510;SDS011;5812;48.864;9.190;2022-07-29T04:21:38;7.55;;;7.55;;
11510;SDS011;5812;48.864;9.190;2022-07-29T04:24:05;7.47;;;7.47;;
11510;SDS011;5812;48.864;9.190;2022-07-29T04:26:32;7.15;;;7.15;;
11510;SDS011;5812;48.864;9.190;2022-07-29T04:28:58;7.25;;;7.25;;
11510;SDS011;5812;48.864;9.190;2022-07-29T04:31:24;7.45;;;7.45;;
11510;SDS011;5812;48.864;9.190;2022-07-29T04:33:49;8.13;;;8.13;;
11510;SDS011;5812;48.864;9.190;2022-07-29T04:36:15;7.75;;;7.75;;
11510;SDS011;5812;48.864;9.190;2022-07-29T04:38:40;7.45;;;7.45;;
11510;SDS011;5812;48.864;9.190;2022-07-29T04:41:06;7.53;;;7.53;;
11510;SDS011;5812;48.864;9.190;2022-07-29T04:43:33;7.30;;;7.30;;
11510;SDS011;5812;48.864;9.190;2022-07-29T04:45:59;7.95;;;7.95;;
11510;SDS011;5812;48.864;9.190;2022-07-29T04:48:25;7.68;;;7.68;;
11510;SDS011;5812;48.864;9.190;2022-07-29T04:50:51;7.70;;;7.70;;
11510;SDS011;5812;48.864;9.190;2022-07-29T04:53:16;7.25;;;7.25;;
11510;SDS011;5812;48.864;9.190;2022-07-29T04:55:42;7.53;;;7.53;;
11510;SDS011;5812;48.864;9.190;2022-07-29T04:58:08;7.00;;;7.00;;
11510;SDS011;5812;48.864;9.190;2022-07-29T05:00:34;6.88;;;6.88;;
11510;SDS011;5812;48.864;9.190;2022-07-29T05:02:59;6.85;;;6.85;;
11510;SDS011;5812;48.864;9.190;2022-07-29T05:05:25;8.07;;;8.07;;
11510;SDS011;5812;48.864;9.190;2022-07-29T05:07:51;7.10;;;7.10;;
11510;SDS011;5812;48.864;9.190;2022-07-29T05:10:16;6.57;;;6.57;;
11510;SDS011;5812;48.864;9.190;2022-07-29T05:12:42;6.75;;;6.75;;
11510;SDS011;5812;48.864;9.190;2022-07-29T05:15:07;7.05;;;7.05;;
11510;SDS011;5812;48.864;9.190;2022-07-29T05:17:34;6.80;;;6.80;;
11510;SDS011;5812;48.864;9.190;2022-07-29T05:19:59;7.20;;;7.20;;
11510;SDS011;5812;48.864;9.190;2022-07-29T05:22:25;8.18;;;8.18;;
11510;SDS011;5812;48.864;9.190;2022-07-29T05:24:51;7.03;;;7.03;;
11510;SDS011;5812;48.864;9.190;2022-07-29T05:27:16;7.07;;;7.07;;
11510;SDS011;5812;48.864;9.190;2022-07-29T05:29:42;6.97;;;6.97;;
11510;SDS011;5812;48.864;9.190;2022-07-29T05:32:07;6.85;;;6.85;;
11510;SDS011;5812;48.864;9.190;2022-07-29T05:34:33;7.18;;;7.18;;
11510;SDS011;5812;48.864;9.190;2022-07-29T05:36:59;5.78;;;5.78;;
11510;SDS011;5812;48.864;9.190;2022-07-29T05:39:24;6.63;;;6.63;;
11510;SDS011;5812;48.864;9.190;2022-07-29T05:41:50;5.80;;;5.80;;
11510;SDS011;5812;48.864;9.190;2022-07-29T05:44:16;5.38;;;5.38;;
11510;SDS011;5812;48.864;9.190;2022-07-29T05:46:41;6.60;;;6.60;;
11510;SDS011;5812;48.864;9.190;2022-07-29T05:49:07;5.55;;;5.55;;
11510;SDS011;5812;48.864;9.190;2022-07-29T05:51:33;6.20;;;6.20;;
11510;SDS011;5812;48.864;9.190;2022-07-29T05:53:59;6.47;;;6.47;;
11510;SDS011;5812;48.864;9.190;2022-07-29T05:56:25;5.22;;;5.22;;
11510;SDS011;5812;48.864;9.190;2022-07-29T05:58:51;5.53;;;5.53;;
11510;SDS011;5812;48.864;9.190;2022-07-29T06:01:17;4.93;;;4.93;;
11510;SDS011;5812;48.864;9.190;2022-07-29T06:03:42;4.78;;;4.78;;
11510;SDS011;5812;48.864;9.190;2022-07-29T06:06:08;4.93;;;4.93;;
11510;SDS011;5812;48.864;9.190;2022-07-29T06:08:34;4.85;;;4.85;;
11510;SDS011;5812;48.864;9.190;2022-07-29T06:11:01;4.88;;;4.88;;
11510;SDS011;5812;48.864;9.190;2022-07-29T06:13:28;4.47;;;4.47;;
11510;SDS011;5812;48.864;9.190;2022-07-29T06:15:54;4.45;;;4.45;;
11510;SDS011;5812;48.864;9.190;2022-07-29T06:18:19;3.88;;;3.88;;
11510;SDS011;5812;48.864;9.190;2022-07-29T06:20:48;4.55;;;4.55;;
11510;SDS011;5812;48.864;9.190;2022-07-29T06:23:18;4.28;;;4.28;;
11510;SDS011;5812;48.864;9.190;2022-07-29T06:25:44;3.65;;;3.65;;
11510;SDS011;5812;48.864;9.190;2022-07-29T06:28:10;4.05;;;4.05;;
11510;SDS011;5812;48.864;9.190;2022-07-29T06:30:35;4.03;;;4.03;;
11510;SDS011;5812;48.864;9.190;2022-07-29T06:33:02;3.85;;;3.85;;
11510;SDS011;5812;48.864;9.190;2022-07-29T06:35:28;4.32;;;4.32;;
11510;SDS011;5812;48.864;9.190;2022-07-29T06:37:54;3.47;;;3.47;;
11510;SDS011;5812;48.864;9.190;2022-07-29T06:40:19;3.50;;;3.50;;
11510;SDS011;5812;48.864;9.190;2022-07-29T06:43:03;4.07;;;4.07;;
11510;SDS011;5812;48.864;9.190;2022-07-29T06:45:30;3.20;;;3.20;;
11510;SDS011;5812;48.864;9.190;2022-07-29T06:47:58;3.33;;;3.33;;
11510;SDS011;5812;48.864;9.190;2022-07-29T06:50:24;3.05;;;3.05;;
11510;SDS011;5812;48.864;9.190;2022-07-29T06:52:50;2.70;;;2.70;;
11510;SDS011;5812;48.864;9.190;2022-07-29T06:55:15;3.13;;;3.13;;
11510;SDS011;5812;48.864;9.190;2022-07-29T06:57:41;2.90;;;2.90;;
11510;SDS011;5812;48.864;9.190;2022-07-29T07:00:07;3.08;;;3.08;;
11510;SDS011;5812;48.864;9.190;2022-07-29T07:02:33;2.92;;;2.92;;
11510;SDS011;5812;48.864;9.190;2022-07-29T07:04:59;3.17;;;3.17;;
11510;SDS011;5812;48.864;9.190;2022-07-29T07:07:24;3.00;;;3.00;;
11510;SDS011;5812;48.864;9.190;2022-07-29T07:09:50;2.65;;;2.65;;
11510;SDS011;5812;48.864;9.190;2022-07-29T07:12:16;2.65;;;2.65;;
11510;SDS011;5812;48.864;9.190;2022-07-29T07:14:41;2.70;;;2.70;;
11510;SDS011;5812;48.864;9.190;2022-07-29T07:17:07;2.70;;;2.70;;
11510;SDS011;5812;48.864;9.190;2022-07-29T07:19:33;2.67;;;2.67;;
11510;SDS011;5812;48.864;9.190;2022-07-29T07:25:29;2.58;;;2.58;;
11510;SDS011;5812;48.864;9.190;2022-07-29T07:28:23;2.30;;;2.30;;
11510;SDS011;5812;48.864;9.190;2022-07-29T07:31:13;2.42;;;2.42;;
11510;SDS011;5812;48.864;9.190;2022-07-29T07:37:47;2.30;;;2.30;;
11510;SDS011;5812;48.864;9.190;2022-07-29T07:54:16;2.55;;;2.55;;
11510;SDS011;5812;48.864;9.190;2022-07-29T07:56:49;2.50;;;2.50;;
11510;SDS011;5812;48.864;9.190;2022-07-29T07:59:48;2.60;;;2.60;;
11510;SDS011;5812;48.864;9.190;2022-07-29T08:05:42;2.20;;;2.20;;
11510;SDS011;5812;48.864;9.190;2022-07-29T08:08:47;2.60;;;2.60;;
11510;SDS011;5812;48.864;9.190;2022-07-29T08:11:13;3.00;;;3.00;;
11510;SDS011;5812;48.864;9.190;2022-07-29T08:13:39;2.45;;;2.45;;
11510;SDS011;5812;48.864;9.190;2022-07-29T08:16:05;2.95;;;2.95;;
11510;SDS011;5812;48.864;9.190;2022-07-29T08:18:38;2.53;;;2.53;;
11510;SDS011;5812;48.864;9.190;2022-07-29T08:21:05;2.42;;;2.42;;
11510;SDS011;5812;48.864;9.190;2022-07-29T08:23:31;2.50;;;2.50;;
11510;SDS011;5812;48.864;9.190;2022-07-29T08:26:07;2.85;;;2.85;;
11510;SDS011;5812;48.864;9.190;2022-07-29T08:31:03;2.50;;;2.50;;
11510;SDS011;5812;48.864;9.190;2022-07-29T08:33:28;2.88;;;2.88;;
11510;SDS011;5812;48.864;9.190;2022-07-29T08:35:54;2.22;;;2.22;;
11510;SDS011;5812;48.864;9.190;2022-07-29T08:38:20;2.50;;;2.50;;
11510;SDS011;5812;48.864;9.190;2022-07-29T08:40:45;2.80;;;2.80;;
11510;SDS011;5812;48.864;9.190;2022-07-29T08:43:11;3.30;;;3.30;;
11510;SDS011;5812;48.864;9.190;2022-07-29T08:45:41;2.97;;;2.97;;
11510;SDS011;5812;48.864;9.190;2022-07-29T08:48:15;3.78;;;3.78;;
11510;SDS011;5812;48.864;9.190;2022-07-29T08:50:46;3.40;;;3.40;;
11510;SDS011;5812;48.864;9.190;2022-07-29T08:53:16;3.00;;;3.00;;
11510;SDS011;5812;48.864;9.190;2022-07-29T08:55:43;2.70;;;2.70;;
11510;SDS011;5812;48.864;9.190;2022-07-29T08:58:10;3.45;;;3.45;;
11510;SDS011;5812;48.864;9.190;2022-07-29T09:00:39;2.60;;;2.60;;
11510;SDS011;5812;48.864;9.190;2022-07-29T09:03:08;3.00;;;3.00;;
11510;SDS011;5812;48.864;9.190;2022-07-29T09:05:36;2.65;;;2.65;;
11510;SDS011;5812;48.864;9.190;2022-07-29T09:08:03;2.97;;;2.97;;
11510;SDS011;5812;48.864;9.190;2022-07-29T09:10:29;3.13;;;3.13;;
11510;SDS011;5812;48.864;9.190;2022-07-29T09:12:56;2.42;;;2.42;;
11510;SDS011;5812;48.864;9.190;2022-07-29T09:15:22;2.97;;;2.97;;
11510;SDS011;5812;48.864;9.190;2022-07-29T09:17:48;2.70;;;2.70;;
11510;SDS011;5812;48.864;9.190;2022-07-29T09:20:19;2.75;;;2.75;;
11510;SDS011;5812;48.864;9.190;2022-07-29T09:22:47;2.42;;;2.42;;
11510;SDS011;5812;48.864;9.190;2022-07-29T09:25:15;2.33;;;2.33;;
11510;SDS011;5812;48.864;9.190;2022-07-29T09:30:35;2.88;;;2.88;;
11510;SDS011;5812;48.864;9.190;2022-07-29T09:33:17;3.17;;;3.17;;
11510;SDS011;5812;48.864;9.190;2022-07-29T09:35:43;2.45;;;2.45;;
11510;SDS011;5812;48.864;9.190;2022-07-29T09:38:09;3.10;;;3.10;;
11510;SDS011;5812;48.864;9.190;2022-07-29T09:40:39;3.08;;;3.08;;
11510;SDS011;5812;48.864;9.190;2022-07-29T09:43:11;3.22;;;3.22;;
11510;SDS011;5812;48.864;9.190;2022-07-29T09:45:38;2.72;;;2.72;;
11510;SDS011;5812;48.864;9.190;2022-07-29T09:50:59;2.58;;;2.58;;
11510;SDS011;5812;48.864;9.190;2022-07-29T09:55:59;3.10;;;3.10;;
11510;SDS011;5812;48.864;9.190;2022-07-29T09:58:25;2.92;;;2.92;;
11510;SDS011;5812;48.864;9.190;2022-07-29T10:00:52;4.03;;;4.03;;
11510;SDS011;5812;48.864;9.190;2022-07-29T10:03:18;3.20;;;3.20;;
11510;SDS011;5812;48.864;9.190;2022-07-29T10:05:44;2.70;;;2.70;;
11510;SDS011;5812;48.864;9.190;2022-07-29T10:08:11;3.03;;;3.03;;
11510;SDS011;5812;48.864;9.190;2022-07-29T10:10:41;3.00;;;3.00;;
11510;SDS011;5812;48.864;9.190;2022-07-29T10:13:11;3.38;;;3.38;;
11510;SDS011;5812;48.864;9.190;2022-07-29T10:15:39;3.28;;;3.28;;
11510;SDS011;5812;48.864;9.190;2022-07-29T10:18:09;3.58;;;3.58;;
11510;SDS011;5812;48.864;9.190;2022-07-29T10:20:36;3.17;;;3.17;;
11510;SDS011;5812;48.864;9.190;2022-07-29T10:23:02;3.13;;;3.13;;
11510;SDS011;5812;48.864;9.190;2022-07-29T10:25:29;2.97;;;2.97;;
11510;SDS011;5812;48.864;9.190;2022-07-29T10:27:55;2.70;;;2.70;;
11510;SDS011;5812;48.864;9.190;2022-07-29T10:30:21;3.13;;;3.13;;
11510;SDS011;5812;48.864;9.190;2022-07-29T10:43:38;3.30;;;3.30;;
11510;SDS011;5812;48.864;9.190;2022-07-29T10:46:07;3.50;;;3.50;;
11510;SDS011;5812;48.864;9.190;2022-07-29T10:48:34;3.60;;;3.60;;
11510;SDS011;5812;48.864;9.190;2022-07-29T10:51:03;3.30;;;3.30;;
11510;SDS011;5812;48.864;9.190;2022-07-29T10:53:49;3.25;;;3.25;;
11510;SDS011;5812;48.864;9.190;2022-07-29T10:56:31;3.60;;;3.60;;
11510;SDS011;5812;48.864;9.190;2022-07-29T11:01:44;3.72;;;3.72;;
11510;SDS011;5812;48.864;9.190;2022-07-29T11:04:14;3.60;;;3.60;;
11510;SDS011;5812;48.864;9.190;2022-07-29T11:09:42;3.42;;;3.42;;
11510;SDS011;5812;48.864;9.190;2022-07-29T11:15:04;3.67;;;3.67;;
11510;SDS011;5812;48.864;9.190;2022-07-29T11:20:30;3.53;;;3.53;;
11510;SDS011;5812;48.864;9.190;2022-07-29T11:28:35;3.95;;;3.95;;
11510;SDS011;5812;48.864;9.190;2022-07-29T11:33:57;4.07;;;4.07;;
11510;SDS011;5812;48.864;9.190;2022-07-29T11:37:12;4.00;;;4.00;;
11510;SDS011;5812;48.864;9.190;2022-07-29T11:44:55;3.85;;;3.85;;
11510;SDS011;5812;48.864;9.190;2022-07-29T11:47:32;3.92;;;3.92;;
11510;SDS011;5812;48.864;9.190;2022-07-29T11:50:00;4.03;;;4.03;;
11510;SDS011;5812;48.864;9.190;2022-07-29T11:52:40;4.40;;;4.40;;
11510;SDS011;5812;48.864;9.190;2022-07-29T11:55:14;3.78;;;3.78;;
11510;SDS011;5812;48.864;9.190;2022-07-29T12:02:50;3.60;;;3.60;;
11510;SDS011;5812;48.864;9.190;2022-07-29T12:05:16;3.80;;;3.80;;
11510;SDS011;5812;48.864;9.190;2022-07-29T12:07:42;4.38;;;4.38;;
11510;SDS011;5812;48.864;9.190;2022-07-29T12:10:08;3.88;;;3.88;;
11510;SDS011;5812;48.864;9.190;2022-07-29T12:12:34;3.53;;;3.53;;
11510;SDS011;5812;48.864;9.190;2022-07-29T12:15:16;3.78;;;3.78;;
11510;SDS011;5812;48.864;9.190;2022-07-29T12:17:45;3.75;;;3.75;;
11510;SDS011;5812;48.864;9.190;2022-07-29T12:20:11;3.85;;;3.85;;
11510;SDS011;5812;48.864;9.190;2022-07-29T12:22:38;4.10;;;4.10;;
11510;SDS011;5812;48.864;9.190;2022-07-29T12:25:10;3.67;;;3.67;;
11510;SDS011;5812;48.864;9.190;2022-07-29T12:27:38;4.07;;;4.07;;
11510;SDS011;5812;48.864;9.190;2022-07-29T12:30:05;3.50;;;3.50;;
11510;SDS011;5812;48.864;9.190;2022-07-29T12:32:33;3.97;;;3.97;;
11510;SDS011;5812;48.864;9.190;2022-07-29T12:35:02;3.78;;;3.78;;
11510;SDS011;5812;48.864;9.190;2022-07-29T12:37:29;3.90;;;3.90;;
11510;SDS011;5812;48.864;9.190;2022-07-29T12:39:56;3.30;;;3.30;;
11510;SDS011;5812;48.864;9.190;2022-07-29T12:42:22;3.20;;;3.20;;
11510;SDS011;5812;48.864;9.190;2022-07-29T12:44:48;3.30;;;3.30;;
11510;SDS011;5812;48.864;9.190;2022-07-29T12:47:15;2.90;;;2.90;;
11510;SDS011;5812;48.864;9.190;2022-07-29T12:49:42;2.40;;;2.40;;
11510;SDS011;5812;48.864;9.190;2022-07-29T12:52:25;2.55;;;2.55;;
11510;SDS011;5812;48.864;9.190;2022-07-29T12:54:53;2.58;;;2.58;;
11510;SDS011;5812;48.864;9.190;2022-07-29T12:57:19;2.90;;;2.90;;
11510;SDS011;5812;48.864;9.190;2022-07-29T12:59:45;3.35;;;3.35;;
11510;SDS011;5812;48.864;9.190;2022-07-29T13:02:23;3.70;;;3.70;;
11510;SDS011;5812;48.864;9.190;2022-07-29T13:04:55;3.15;;;3.15;;
11510;SDS011;5812;48.864;9.190;2022-07-29T13:07:26;3.30;;;3.30;;
11510;SDS011;5812;48.864;9.190;2022-07-29T13:09:54;2.80;;;2.80;;
11510;SDS011;5812;48.864;9.190;2022-07-29T13:12:36;2.92;;;2.92;;
11510;SDS011;5812;48.864;9.190;2022-07-29T13:15:12;3.15;;;3.15;;
11510;SDS011;5812;48.864;9.190;2022-07-29T13:17:40;3.20;;;3.20;;
11510;SDS011;5812;48.864;9.190;2022-07-29T13:20:09;3.42;;;3.42;;
11510;SDS011;5812;48.864;9.190;2022-07-29T13:22:40;2.97;;;2.97;;
11510;SDS011;5812;48.864;9.190;2022-07-29T13:25:07;3.25;;;3.25;;
11510;SDS011;5812;48.864;9.190;2022-07-29T13:27:35;3.00;;;3.00;;
11510;SDS011;5812;48.864;9.190;2022-07-29T13:30:04;2.90;;;2.90;;
11510;SDS011;5812;48.864;9.190;2022-07-29T13:32:32;2.65;;;2.65;;
11510;SDS011;5812;48.864;9.190;2022-07-29T13:35:03;2.90;;;2.90;;
11510;SDS011;5812;48.864;9.190;2022-07-29T13:37:31;3.00;;;3.00;;
11510;SDS011;5812;48.864;9.190;2022-07-29T13:39:59;2.85;;;2.85;;
11510;SDS011;5812;48.864;9.190;2022-07-29T13:42:25;3.20;;;3.20;;
11510;SDS011;5812;48.864;9.190;2022-07-29T13:44:51;3.58;;;3.58;;
11510;SDS011;5812;48.864;9.190;2022-07-29T13:47:18;3.20;;;3.20;;
11510;SDS011;5812;48.864;9.190;2022-07-29T13:49:44;3.92;;;3.92;;
11510;SDS011;5812;48.864;9.190;2022-07-29T13:52:09;4.10;;;4.10;;
11510;SDS011;5812;48.864;9.190;2022-07-29T13:54:35;3.45;;;3.45;;
11510;SDS011;5812;48.864;9.190;2022-07-29T13:57:02;3.20;;;3.20;;
11510;SDS011;5812;48.864;9.190;2022-07-29T13:59:28;3.40;;;3.40;;
11510;SDS011;5812;48.864;9.190;2022-07-29T14:01:54;3.28;;;3.28;;
11510;SDS011;5812;48.864;9.190;2022-07-29T14:04:20;3.80;;;3.80;;
11510;SDS011;5812;48.864;9.190;2022-07-29T14:06:47;3.67;;;3.67;;
11510;SDS011;5812;48.864;9.190;2022-07-29T14:09:13;3.78;;;3.78;;
11510;SDS011;5812;48.864;9.190;2022-07-29T14:11:39;3.70;;;3.70;;
11510;SDS011;5812;48.864;9.190;2022-07-29T14:14:05;4.05;;;4.05;;
11510;SDS011;5812;48.864;9.190;2022-07-29T14:16:31;3.65;;;3.65;;
11510;SDS011;5812;48.864;9.190;2022-07-29T14:18:56;3.38;;;3.38;;
11510;SDS011;5812;48.864;9.190;2022-07-29T14:21:22;3.45;;;3.45;;
11510;SDS011;5812;48.864;9.190;2022-07-29T14:23:48;3.60;;;3.60;;
11510;SDS011;5812;48.864;9.190;2022-07-29T14:26:13;3.67;;;3.67;;
11510;SDS011;5812;48.864;9.190;2022-07-29T14:28:39;3.20;;;3.20;;
11510;SDS011;5812;48.864;9.190;2022-07-29T14:31:04;3.90;;;3.90;;
11510;SDS011;5812;48.864;9.190;2022-07-29T14:33:30;3.33;;;3.33;;
11510;SDS011;5812;48.864;9.190;2022-07-29T14:35:56;3.45;;;3.45;;
11510;SDS011;5812;48.864;9.190;2022-07-29T14:38:21;4.25;;;4.25;;
11510;SDS011;5812;48.864;9.190;2022-07-29T14:40:47;3.85;;;3.85;;
11510;SDS011;5812;48.864;9.190;2022-07-29T14:43:13;4.03;;;4.03;;
11510;SDS011;5812;48.864;9.190;2022-07-29T14:45:39;3.55;;;3.55;;
11510;SDS011;5812;48.864;9.190;2022-07-29T14:48:05;4.00;;;4.00;;
11510;SDS011;5812;48.864;9.190;2022-07-29T14:50:31;3.58;;;3.58;;
11510;SDS011;5812;48.864;9.190;2022-07-29T14:52:57;3.55;;;3.55;;
11510;SDS011;5812;48.864;9.190;2022-07-29T14:55:23;3.78;;;3.78;;
11510;SDS011;5812;48.864;9.190;2022-07-29T14:57:48;3.67;;;3.67;;
11510;SDS011;5812;48.864;9.190;2022-07-29T15:00:14;3.13;;;3.13;;
11510;SDS011;5812;48.864;9.190;2022-07-29T15:02:40;3.25;;;3.25;;
11510;SDS011;5812;48.864;9.190;2022-07-29T15:05:06;3.13;;;3.13;;
11510;SDS011;5812;48.864;9.190;2022-07-29T15:07:32;3.10;;;3.10;;
11510;SDS011;5812;48.864;9.190;2022-07-29T15:09:57;2.90;;;2.90;;
11510;SDS011;5812;48.864;9.190;2022-07-29T15:12:23;3.78;;;3.78;;
11510;SDS011;5812;48.864;9.190;2022-07-29T15:14:49;3.83;;;3.83;;
11510;SDS011;5812;48.864;9.190;2022-07-29T15:17:14;4.13;;;4.13;;
11510;SDS011;5812;48.864;9.190;2022-07-29T15:19:40;4.05;;;4.05;;
11510;SDS011;5812;48.864;9.190;2022-07-29T15:22:05;4.13;;;4.13;;
11510;SDS011;5812;48.864;9.190;2022-07-29T15:24:31;4.03;;;4.03;;
11510;SDS011;5812;48.864;9.190;2022-07-29T15:26:57;4.10;;;4.10;;
11510;SDS011;5812;48.864;9.190;2022-07-29T15:29:22;3.63;;;3.63;;
11510;SDS011;5812;48.864;9.190;2022-07-29T15:31:48;3.67;;;3.67;;
11510;SDS011;5812;48.864;9.190;2022-07-29T15:34:14;4.05;;;4.05;;
11510;SDS011;5812;48.864;9.190;2022-07-29T15:36:40;3.88;;;3.88;;
11510;SDS011;5812;48.864;9.190;2022-07-29T15:39:06;3.78;;;3.78;;
11510;SDS011;5812;48.864;9.190;2022-07-29T15:41:32;3.92;;;3.92;;
11510;SDS011;5812;48.864;9.190;2022-07-29T15:43:58;4.63;;;4.63;;
11510;SDS011;5812;48.864;9.190;2022-07-29T15:46:24;4.63;;;4.63;;
11510;SDS011;5812;48.864;9.190;2022-07-29T15:49:08;4.20;;;4.20;;
11510;SDS011;5812;48.864;9.190;2022-07-29T15:51:34;4.47;;;4.47;;
11510;SDS011;5812;48.864;9.190;2022-07-29T15:54:03;3.40;;;3.40;;
11510;SDS011;5812;48.864;9.190;2022-07-29T15:56:29;2.38;;;2.38;;
11510;SDS011;5812;48.864;9.190;2022-07-29T15:58:55;3.40;;;3.40;;
11510;SDS011;5812;48.864;9.190;2022-07-29T16:01:21;3.95;;;3.95;;
11510;SDS011;5812;48.864;9.190;2022-07-29T16:03:47;4.55;;;4.55;;
11510;SDS011;5812;48.864;9.190;2022-07-29T16:06:13;4.35;;;4.35;;
11510;SDS011;5812;48.864;9.190;2022-07-29T16:08:38;4.70;;;4.70;;
11510;SDS011;5812;48.864;9.190;2022-07-29T16:11:04;4.32;;;4.32;;
11510;SDS011;5812;48.864;9.190;2022-07-29T16:13:30;3.72;;;3.72;;
11510;SDS011;5812;48.864;9.190;2022-07-29T16:15:56;2.80;;;2.80;;
11510;SDS011;5812;48.864;9.190;2022-07-29T16:18:21;2.20;;;2.20;;
11510;SDS011;5812;48.864;9.190;2022-07-29T16:20:47;1.60;;;1.60;;
11510;SDS011;5812;48.864;9.190;2022-07-29T16:23:12;1.60;;;1.60;;
11510;SDS011;5812;48.864;9.190;2022-07-29T16:25:39;1.65;;;1.65;;
11510;SDS011;5812;48.864;9.190;2022-07-29T16:28:06;1.65;;;1.65;;
11510;SDS011;5812;48.864;9.190;2022-07-29T16:30:32;1.40;;;1.40;;
11510;SDS011;5812;48.864;9.190;2022-07-29T16:32:58;1.63;;;1.63;;
11510;SDS011;5812;48.864;9.190;2022-07-29T16:35:23;1.75;;;1.75;;